createdAt,value
2023-05-22T00:08:30.419Z,64.14
2023-05-22T00:18:56.348Z,64.50
2023-05-22T00:29:20.266Z,65.06
2023-05-22T00:39:45.592Z,65.59
2023-05-22T00:50:12.386Z,66.08
2023-05-22T01:00:37.903Z,66.48
2023-05-22T01:11:13.660Z,67.19
2023-05-22T01:21:56.090Z,68.00
2023-05-22T01:32:23.684Z,68.63
2023-05-22T01:42:50.494Z,69.25
2023-05-22T01:53:23.633Z,69.27
2023-05-22T02:03:56.953Z,69.31
2023-05-22T02:14:22.770Z,69.55
2023-05-22T02:24:48.933Z,70.32
2023-05-22T02:35:13.123Z,70.63
2023-05-22T02:45:37.773Z,71.32
2023-05-22T02:56:04.246Z,71.98
2023-05-22T03:06:28.409Z,72.17
2023-05-22T03:16:55.122Z,72.29
2023-05-22T03:27:20.845Z,72.29
2023-05-22T03:37:45.732Z,72.33
2023-05-22T03:48:11.355Z,72.02
2023-05-22T03:58:36.287Z,71.64
2023-05-22T04:09:00.910Z,71.96
2023-05-22T04:19:25.498Z,73.10
2023-05-22T04:29:54.122Z,73.33
2023-05-22T04:40:18.377Z,72.93
2023-05-22T04:50:42.816Z,72.29
2023-05-22T05:01:07.075Z,71.73
2023-05-22T05:11:31.403Z,70.95
2023-05-22T05:21:56.082Z,70.62
2023-05-22T05:32:21.430Z,70.05
2023-05-22T05:43:00.784Z,69.32
2023-05-22T05:53:27.010Z,68.84
2023-05-22T06:03:55.726Z,67.89
2023-05-22T06:14:25.691Z,66.94
2023-05-22T06:24:51.190Z,66.37
2023-05-22T06:35:17.984Z,66.06
2023-05-22T06:45:42.760Z,65.11
2023-05-22T06:56:25.882Z,64.18
2023-05-22T07:06:54.593Z,63.57
2023-05-22T07:17:20.885Z,63.26
2023-05-22T07:27:46.772Z,63.09
2023-05-22T07:38:11.815Z,61.41
2023-05-22T07:48:36.668Z,61.59
2023-05-22T07:59:02.539Z,60.33
2023-05-22T08:09:27.600Z,59.32
2023-05-22T08:19:51.766Z,58.19
2023-05-22T08:30:17.081Z,56.87
2023-05-22T08:40:46.403Z,54.94
2023-05-22T08:51:15.572Z,53.77
2023-05-22T09:01:40.732Z,53.06
2023-05-22T09:12:10.580Z,52.41
2023-05-22T09:22:38.717Z,52.16
2023-05-22T09:33:04.329Z,50.90
2023-05-22T09:43:29.354Z,49.79
2023-05-22T09:54:03.721Z,48.20
2023-05-22T10:04:34.008Z,45.79
2023-05-22T10:15:01.262Z,44.10
2023-05-22T10:25:26.390Z,43.89
2023-05-22T10:36:00.073Z,42.98
2023-05-22T10:46:24.815Z,42.60
2023-05-22T10:56:49.096Z,42.78
2023-05-22T11:07:16.497Z,42.45
2023-05-22T11:17:51.855Z,42.82
2023-05-22T11:28:16.654Z,43.02
2023-05-22T11:38:41.721Z,42.94
2023-05-22T11:49:07.022Z,41.98
2023-05-22T11:59:31.256Z,42.04
2023-05-22T12:09:59.036Z,41.27
2023-05-22T12:20:23.398Z,40.83
2023-05-22T12:30:53.345Z,41.16
2023-05-22T12:41:18.564Z,40.12
2023-05-22T12:51:45.109Z,39.49
2023-05-22T13:02:10.496Z,39.90
2023-05-22T13:12:35.201Z,38.97
2023-05-22T13:23:00.185Z,39.09
2023-05-22T13:33:25.050Z,39.57
2023-05-22T13:43:49.873Z,40.82
2023-05-22T13:54:14.744Z,41.81
2023-05-22T14:04:39.915Z,40.71
2023-05-22T14:15:05.285Z,40.19
2023-05-22T14:25:30.087Z,40.12
2023-05-22T14:35:54.708Z,39.30
2023-05-22T14:46:19.569Z,38.30
2023-05-22T14:56:44.067Z,38.72
2023-05-22T15:07:08.415Z,39.64
2023-05-22T15:17:36.776Z,39.99
2023-05-22T15:28:02.872Z,40.63
2023-05-22T15:38:26.797Z,40.76
2023-05-22T15:48:52.246Z,40.80
2023-05-22T15:59:17.076Z,40.49
2023-05-22T16:09:43.773Z,40.46
2023-05-22T16:20:09.037Z,39.99
2023-05-22T16:30:34.124Z,39.20
2023-05-22T16:40:59.168Z,39.71
2023-05-22T16:51:23.637Z,41.02
2023-05-22T17:01:48.609Z,42.32
2023-05-22T17:12:12.749Z,42.75
2023-05-22T17:22:38.577Z,43.14
2023-05-22T17:33:04.002Z,44.19
2023-05-22T17:43:28.771Z,45.11
2023-05-22T17:53:56.587Z,45.68
2023-05-22T18:04:21.727Z,46.51
2023-05-22T18:14:47.204Z,46.87
2023-05-22T18:25:12.698Z,47.53
2023-05-22T18:35:38.590Z,47.88
2023-05-22T18:46:07.023Z,48.65
2023-05-22T18:56:32.548Z,49.48
2023-05-22T19:07:01.310Z,50.26
2023-05-22T19:17:26.464Z,51.18
2023-05-22T19:27:59.258Z,52.02
2023-05-22T19:38:24.378Z,52.93
2023-05-22T19:49:38.333Z,53.63
2023-05-22T20:00:14.897Z,54.22
2023-05-22T20:10:53.065Z,54.71
2023-05-22T20:21:37.260Z,55.21
2023-05-22T20:32:03.192Z,56.10
2023-05-22T20:43:20.553Z,56.50
2023-05-22T20:54:11.196Z,56.87
2023-05-22T21:04:57.170Z,57.00
2023-05-22T21:15:39.097Z,57.26
2023-05-22T21:26:27.780Z,57.44
2023-05-22T21:36:53.337Z,57.62
2023-05-22T21:47:39.779Z,57.78
2023-05-22T21:58:26.239Z,58.67
2023-05-22T22:08:53.632Z,58.95
2023-05-22T22:19:19.341Z,59.33
2023-05-22T22:30:05.145Z,59.55
2023-05-22T22:40:30.593Z,59.95
2023-05-22T22:51:09.269Z,60.14
2023-05-22T23:02:37.080Z,60.46
2023-05-22T23:13:48.144Z,60.89
2023-05-22T23:24:24.961Z,61.21
2023-05-22T23:34:54.782Z,62.02
2023-05-22T23:46:00.699Z,62.71
2023-05-22T23:56:36.856Z,63.26
